Moab, UT

5:29 PM MDT on May 28, 2015 (GMT -0600)
Canon Vista | | Change Station
CLOSE
Current Station
Personal Weather Station
Location: Moab, UT
Elevation: 4183 ft
Nearby Weather Stations

Elev 4183 ft 38.56 °N, 109.53 °W | Updated 9 seconds ago

Overcast
Overcast
73.0 °F
Feels Like 77 °F
N
10.0
Wind Variable Wind from East
Gusts 12.0 mph

Today
High -- | Low -- °F
--% Chance of Precip.
Yesterday
High -- | Low -- °F
Precip. -- in
5:57 AM 8:33 PM
Waxing Gibbous, 79% visible
Pressure 29.93 in
Visibility 10.0 miles
Clouds Few 12000 ft
Heat Index 77 °F
Dew Point 44 °F
Humidity 35%
Rainfall 0.00 in
Snow Depth Not available.
UV 5 out of 12
Pollen 7.30 out of 12
Air Quality Not available.
Flu Activity Sporadic
METAR KCNY 282253Z AUTO 03014KT 10SM FEW120 22/04 A3004 RMK AO2 PK WND 01038/2202 LTG DSNT SE AND S RAB18E28 SLP134 P0000 T02170039

More Conditions Fewer Conditions

Pressure 29.93 in
Visibility 10.0 miles
Clouds Few 12000 ft
Heat Index 77 °F
Dew Point 44 °F
Humidity 35%
Rainfall 0.00 in
Snow Depth Not available.
UV 5 out of 12
Pollen 7.30 out of 12
Air Quality Not available.
Flu Activity Sporadic
METAR KCNY 282253Z AUTO 03014KT 10SM FEW120 22/04 A3004 RMK AO2 PK WND 01038/2202 LTG DSNT SE AND S RAB18E28 SLP134 P0000 T02170039

More Conditions Fewer Conditions

10-Day Weather Forecast

Almanac

Astronomy

May. 28, 2015 Rise Set
Actual Time
Civil Twilight
Nautical Twilight
Astronomical Twilight
Moon
Length of Visible Light
Length of Day
Tomorrow will be .
, % of the Moon is Illuminated

Today's Extremes

State Highs State Lows

Community

WunderPhotos

Upload Photos

1,825,091 photos uploaded!

WunderBlogs® & News

Nearby

Air Quality

  Air Quality AQ Index Pollutant
Not available.

Snow Depth

Station Depth Elevation

Earthquake Activity

City Distance Mag. Time & Date
Minimum magnitude displayed is 2.5.

Coastal Water Temperatures

Place Temperature

Stations

Nearby Weather Stations

Station Location Temp. Windchill Dew Point Humidity Wind Precip. Elev Updated Type